Metar Cercanos

 

LEPA - Palma De Mallorc, Spain
Distance from station: ONO 38km
Actualización: 24/04/2018 08:30
Despejado
Despejado
 Viento del ENE
Viento: ENE 15 km/h
Temperatura: 17°C
Rocío: 11°C
Humedad: 68%
Barómetro: 1018 hPa
Resumen: Despejado
Visibility: greater than 10 km
2018/04/24 06:30 LEPA 240630Z 06008KT CAVOK 17/11 Q1018 NOSIG
LEMH - Mahon/Menorca Is, Spain
Distance from station: ENE 105km
Actualización: 24/04/2018 08:30
Despejado
Despejado
 Viento del E
Viento: E 9 km/h
Temperatura: 17°C
Rocío: 13°C
Humedad: 77%
Barómetro: 1019 hPa
Resumen: Despejado
Visibility: greater than 10 km
2018/04/24 06:30 LEMH 240630Z 09005KT CAVOK 17/13 Q1019
 
LEIB - Ibiza/Es Codola, Spain
Distance from station: OSO 165km
Actualización: 24/04/2018 08:30
Despejado
Despejado
 Viento del N
Viento: N 11 km/h
Temperatura: 20°C
Rocío: 7°C
Humedad: 43%
Barómetro: 1019 hPa
Resumen: Despejado
Visibility: greater than 10 km
2018/04/24 06:30 LEIB 240630Z 35006KT 280V030 CAVOK 20/07 Q1019 NOSIG
LEBL - Barcelona Airpor, Spain
Distance from station: NNO 225km
Actualización: 24/04/2018 08:30
Despejado
Despejado
 Viento del NNO
Viento: NNO 17 km/h
Temperatura: 16°C
Rocío: 11°C
Humedad: 72%
Barómetro: 1019 hPa
Resumen: Despejado
Visibility: greater than 10 km
2018/04/24 06:30 LEBL 240630Z 33009KT 290V030 CAVOK 16/11 Q1019 NOSIG
 
LEVC - Valencia (civ/Mi, Spain
Distance from station: NO 188km
Actualización: 24/04/2018 08:30
Despejado
Despejado
 Viento del varies
Viento: varies 4 km/h
Temperatura: 17°C
Rocío: 11°C
Humedad: 68%
Barómetro: 1019 hPa
Resumen: Despejado
Visibility: greater than 10 km
2018/04/24 06:30 LEVC 240630Z VRB02KT CAVOK 17/11 Q1019 NOSIG
LEGE - Gerona/Costa Bra, Spain
Distance from station: N 276km
Actualización: 24/04/2018 08:30
Despejado
Despejado
 Viento del varies
Viento: varies 2 km/h
Temperatura: 13°C
Rocío: 13°C
Humedad: 100%
Barómetro: 1019 hPa
Resumen: Despejado
Visibility: greater than 10 km
2018/04/24 06:30 LEGE 240630Z VRB01KT CAVOK 13/13 Q1019
 
LEAL - Alicante/El Alte, Spain
Distance from station: OSO 344km
Actualización: 24/04/2018 08:30
Few Clouds
Few Clouds
 Viento del E
Viento: E 37 km/h
Temperatura: 20°C
Rocío: 9°C
Humedad: 49%
Barómetro: 1014 hPa
Clouds: Few Clouds
Visibility: 10 km
Cloud details: Few Clouds 1067 m
2018/04/24 06:30 LEAL 240630Z 08020KT 9999 FEW035 20/09 Q1014 NOSIG
LEAM - Almeria Airport, Spain
Distance from station: SSO 56km
Actualización: 24/04/2018 08:30
Despejado
Despejado
 Viento del calm
Viento: Calma
Temperatura: 16°C
Rocío: 12°C
Humedad: 77%
Barómetro: 1013 hPa
Resumen: Despejado
Visibility: greater than 10 km
2018/04/24 06:30 LEAM 240630Z 00000KT CAVOK 16/12 Q1013
 
LEZG - Zaragoza (mil/Ci, Spain
Distance from station: NO 431km
Actualización: 24/04/2018 08:30
Nearby fog, Parcialmente nuboso
Nearby fog, Parcialmente nuboso
 Viento del calm
Viento: Calma
Temperatura: 12°C
Rocío: 11°C
Humedad: 94%
Barómetro: 1020 hPa
Resumen: Nearby Fog
Clouds: Parcialmente nuboso
Visibility: 3 km
2018/04/24 06:30 LEZG 240630Z 00000KT 3000 R30R/0750N R12R/0450D VCFG NSC 12/11 Q1020
LEMD - Madrid/Barajas, Spain
Distance from station: ONO 234km
Actualización: 24/04/2018 08:30
Despejado
Despejado
 Viento del NNO
Viento: NNO 6 km/h
Temperatura: 12°C
Rocío: 11°C
Humedad: 94%
Barómetro: 1018 hPa
Resumen: Despejado
Visibility: greater than 10 km
2018/04/24 06:30 LEMD 240630Z 33003KT 310V030 CAVOK 12/11 Q1018 NOSIG
 
LEGR - Granada Airport, Spain
Distance from station: OSO 62km
Actualización: 24/04/2018 08:30
Few Clouds
Few Clouds
 Viento del OSO
Viento: OSO 4 km/h
Temperatura: 15°C
Rocío: 8°C
Humedad: 63%
Barómetro: 1014 hPa
Clouds: Few Clouds
Visibility: 10 km
Cloud details: Few Clouds 3048 m
2018/04/24 06:30 LEGR 240630Z 24002KT 9999 FEW100 15/08 Q1014
LEMG - Malaga (civ/Mil), Spain
Distance from station: OSO 227km
Actualización: 24/04/2018 08:30
Parcialmente nuboso
Parcialmente nuboso
 Viento del O
Viento: O 7 km/h
Temperatura: 15°C
Rocío: 14°C
Humedad: 94%
Barómetro: 1013 hPa
Clouds: Parcialmente nuboso
Visibility: 7 km
2018/04/24 06:30 LEMG 240630Z 28004KT 7000 NSC 15/14 Q1013 NOSIG
 
LEZL - Sevilla (civ/Mil, Spain
Distance from station: S 318km
Actualización: 24/04/2018 08:30
Despejado
Despejado
 Viento del SE
Viento: SE 7 km/h
Temperatura: 17°C
Rocío: 15°C
Humedad: 88%
Barómetro: 1013 hPa
Resumen: Despejado
Visibility: greater than 10 km
2018/04/24 06:30 LEZL 240630Z 13004KT 100V160 CAVOK 17/15 Q1013 NOSIG
LEVT - Vitoria, Spain
Distance from station: NO 226km
Actualización: 24/04/2018 08:30
Muy nuboso
Muy nuboso
 Viento del calm
Viento: Calma
Temperatura: 13°C
Rocío: 12°C
Humedad: 94%
Barómetro: 1020 hPa
Clouds: Muy nuboso
Visibility: 10 km
Cloud details: Muy nuboso 366 m
2018/04/24 06:30 LEVT 240630Z 00000KT 9999 BKN012 13/12 Q1020
 
LEBB - Bilbao/Sondica, Spain
Distance from station: NNO 235km
Actualización: 24/04/2018 08:30
Muy nuboso
Muy nuboso
 Viento del E
Viento: E 9 km/h
Temperatura: 15°C
Rocío: 14°C
Humedad: 94%
Barómetro: 1020 hPa
Clouds: Muy nuboso
Visibility: 10 km
Cloud details: Muy nuboso 732 m
2018/04/24 06:30 LEBB 240630Z 10005KT 070V140 9999 BKN024 15/14 Q1020 TEMPO 3000 BR BKN010
LESO - San Sebastian/Fu, Spain
Distance from station: N 231km
Actualización: 24/04/2018 08:30
Parcialmente nuboso
Parcialmente nuboso
 Viento del calm
Viento: Calma
Temperatura: 16°C
Rocío: 14°C
Humedad: 88%
Barómetro: 1020 hPa
Clouds: Parcialmente nuboso
Visibility: 10 km
Cloud details: Parcialmente nuboso 396 m
2018/04/24 06:30 LESO 240630Z 00000KT 9999 SCT013 16/14 Q1020
 
LEVD - Valladolid(Mil/C, Spain
Distance from station: ONO 239km
Actualización: 24/04/2018 08:30
Despejado
Despejado
 Viento del E
Viento: E 11 km/h
Temperatura: 11°C
Rocío: 9°C
Humedad: 88%
Barómetro: 1019 hPa
Resumen: Despejado
Visibility: greater than 10 km
2018/04/24 06:30 LEVD 240630Z 08006KT CAVOK 11/09 Q1019
LESA - Salamanca (civ/M, Spain
Distance from station: ONO 349km
Actualización: 24/04/2018 08:30
Despejado
Despejado
 Viento del calm
Viento: Calma
Temperatura: 9°C
Rocío: 7°C
Humedad: 87%
Barómetro: 1018 hPa
Resumen: Despejado
Visibility: greater than 10 km
2018/04/24 06:30 LESA 240630Z 00000KT CAVOK 09/07 Q1018
 
LEXJ - Santander/Paraya, Spain
Distance from station: NNO 247km
Actualización: 24/04/2018 08:30
Mist, Cubierto
Mist, Cubierto
 Viento del E
Viento: E 7 km/h
Temperatura: 15°C
Rocío: 15°C
Humedad: 100%
Barómetro: 1019 hPa
Resumen: Mist
Clouds: Cubierto
Visibility: 5 km
Cloud details: Few Clouds 213 m
Cubierto 488 m
2018/04/24 06:30 LEXJ 240630Z 09004KT 060V120 5000 BR FEW007 OVC016 15/15 Q1019
LEAS - Asturias/Aviles, Spain
Distance from station: NO 214km
Actualización: 24/04/2018 08:30
Light drizzle, Mist, Muy nuboso
Light drizzle, Mist, Muy nuboso
 Viento del varies
Viento: varies 4 km/h
Temperatura: 13°C
Rocío: 13°C
Humedad: 100%
Barómetro: 1019 hPa
Resumen: Light drizzle, Mist
Clouds: Muy nuboso
Visibility: 3 km
Cloud details: Parcialmente nuboso 61 m
Muy nuboso 366 m
2018/04/24 06:30 LEAS 240630Z VRB02KT 3000 -DZ BR SCT002 BKN012 13/13 Q1019 NOSIG
 
LECO - La Coruna/Alvedr, Spain
Distance from station: ONO 222km
Actualización: 24/04/2018 08:42
Patches of fog, Parcialmente nuboso
Patches of fog, Parcialmente nuboso
 Viento del S
Viento: S 6 km/h
Temperatura: 8°C
Rocío: 8°C
Humedad: 100%
Barómetro: 1019 hPa
Resumen: Patches of Fog
Clouds: Parcialmente nuboso
Visibility: 5 km
Cloud details: Parcialmente nuboso 30 m
2018/04/24 06:42 LECO 240642Z 18003KT 5000 0200E R21/0450N R03/P2000 BCFG SCT001 08/08 Q1019 TEMPO 1500 BCFG
LEVX - Vigo/Peinador, Spain
Distance from station: O 214km
Actualización: 24/04/2018 08:30
Despejado
Despejado
 Viento del SO
Viento: SO 6 km/h
Temperatura: 15°C
Rocío: 11°C
Humedad: 77%
Barómetro: 1017 hPa
Resumen: Despejado
Visibility: greater than 10 km
2018/04/24 06:30 LEVX 240630Z 23003KT 190V260 CAVOK 15/11 Q1017 NOSIG